This is the latest recevied weather packets stored in our database for station/object KE6JJJ-1. If no packets are shown the sender has not sent any weather packets the latest 10 day(s).
| Time | Temp. | Humidity | Pressure | Rain* | Wind** | Luminosity | Snow |
|---|---|---|---|---|---|---|---|
| 1788152703 | 59° F | 86% | 759.4 mmHg | 0 in | - | 0 W/m² | - |
| 1788149106 | 58° F | 87% | 759.2 mmHg | 0 in | - | 0 W/m² | - |
| 1788147307 | 58° F | 87% | 759.1 mmHg | 0 in | - | 0 W/m² | - |
| 1788145503 | 58° F | 87% | 758.8 mmHg | 0 in | - | 0 W/m² | - |
| 1788143706 | 58° F | 86% | 758.7 mmHg | 0 in | - | 7 W/m² | - |
| 1788140106 | 60° F | 83% | 758.8 mmHg | 0 in | - | 148 W/m² | - |
| 1788134703 | 62° F | 78% | 759.1 mmHg | 0 in | - | 448 W/m² | - |
| 1788131103 | 63° F | 76% | 759.4 mmHg | 0 in | - | 621 W/m² | - |
| 1788129303 | 65° F | 75% | 759.4 mmHg | 0 in | - | 693 W/m² | - |
| 1788127503 | 66° F | 74% | 759.7 mmHg | 0 in | - | 754 W/m² | - |
| 1788125704 | 65° F | 74% | 760 mmHg | 0 in | - | 801 W/m² | - |
| 1788123903 | 65° F | 75% | 760.4 mmHg | 0 in | - | 837 W/m² | - |
| 1788122107 | 66° F | 73% | 760.6 mmHg | 0 in | - | 851 W/m² | - |
| 1788120303 | 66° F | 74% | 760.8 mmHg | 0 in | - | 858 W/m² | - |
| 1788118506 | 65° F | 75% | 760.9 mmHg | 0 in | - | 944 W/m² | - |
| 1788116703 | 63° F | 77% | 760.9 mmHg | 0 in | - | 582 W/m² | - |
| 1788114906 | 62° F | 80% | 760.9 mmHg | 0 in | - | 471 W/m² | - |
| 1788113106 | 61° F | 83% | 761 mmHg | 0 in | - | 315 W/m² | - |
| 1788107703 | 59° F | 85% | 761 mmHg | 0 in | - | 113 W/m² | - |
| 1788105903 | 59° F | 86% | 760.9 mmHg | 0 in | - | 88 W/m² | - |
| 1788102303 | 58° F | 87% | 760.7 mmHg | 0 in | - | 49 W/m² | - |
| 1788100507 | 58° F | 87% | 760.6 mmHg | 0 in | - | 28 W/m² | - |
| 1788098703 | 58° F | 87% | 760.5 mmHg | 0 in | - | 9 W/m² | - |
| 1788096903 | 58° F | 87% | 760.1 mmHg | 0 in | - | 0 W/m² | - |
| 1788095103 | 58° F | 87% | 760 mmHg | 0 in | - | 0 W/m² | - |
* Rain latest hour (hover to see other rain measurements)
** Current wind speed in m/s (hover to see current wind gust speed)